Time;durP1;ratioP1;P1;durP2;ratioP2;P2;SDS_P1;SDS_P2;PMS_P1;PMS_P2;Temp;Humidity;BMP_temperature;BMP_pressure;BME280_temperature;BME280_humidity;BME280_pressure;Samples;Min_cycle;Max_cycle;Signal;HPM_P1;HPM_P2
2021/09/30 00:01:35;;;;;;;11.00;8.63;;;9.50;99.90;;;;;;5027653;28;20464;-68
2021/09/30 00:04:01;;;;;;;13.87;8.03;;;9.50;99.90;;;;;;5011751;28;20187;-68
2021/09/30 00:06:29;;;;;;;9.33;8.47;;;9.40;99.90;;;;;;5013208;28;20180;-68
2021/09/30 00:08:54;;;;;;;12.07;8.63;;;9.40;99.90;;;;;;5030104;28;20262;-68
2021/09/30 00:11:25;;;;;;;8.57;7.83;;;9.40;99.90;;;;;;5012421;28;20658;-68
2021/09/30 00:32:47;;;;;;;17.53;10.13;;;9.30;99.90;;;;;;5019150;28;20187;-67
2021/09/30 00:51:10;;;;;;;10.47;9.50;;;9.50;99.90;;;;;;5015701;28;20206;-66
2021/09/30 01:52:51;;;;;;;13.53;9.37;;;9.10;99.90;;;;;;5033242;28;20194;-67
2021/09/30 02:31:12;;;;;;;10.77;9.67;;;8.60;99.90;;;;;;5007734;28;20672;-67
2021/09/30 02:39:47;;;;;;;9.33;8.43;;;8.50;99.90;;;;;;5012974;28;20268;-64
2021/09/30 02:59:12;;;;;;;9.90;8.97;;;8.40;99.90;;;;;;5018503;28;20183;-64
2021/09/30 03:01:41;;;;;;;11.73;9.60;;;8.40;99.90;;;;;;5032277;28;20167;-65
2021/09/30 03:04:08;;;;;;;13.13;9.10;;;8.40;99.90;;;;;;5026610;28;20187;-66
2021/09/30 03:06:35;;;;;;;9.83;8.53;;;8.30;99.90;;;;;;5012630;28;20180;-64
2021/09/30 03:09:04;;;;;;;9.13;8.33;;;8.40;99.90;;;;;;5016086;28;20590;-64
2021/09/30 03:11:34;;;;;;;9.23;8.23;;;8.30;99.90;;;;;;5032202;28;20174;-65
2021/09/30 03:14:00;;;;;;;8.40;7.43;;;8.30;99.90;;;;;;5028567;28;20180;-65
2021/09/30 03:18:58;;;;;;;9.30;8.43;;;8.30;99.90;;;;;;5013866;28;20164;-65
2021/09/30 03:24:12;;;;;;;11.30;9.27;;;8.30;99.90;;;;;;5028093;28;20183;-64
2021/09/30 03:26:38;;;;;;;10.77;8.90;;;8.30;99.90;;;;;;5012500;28;20260;-66
2021/09/30 03:29:06;;;;;;;15.37;8.20;;;8.30;99.90;;;;;;5013206;28;20183;-65
2021/09/30 03:31:32;;;;;;;12.73;8.47;;;8.30;99.90;;;;;;5012260;28;20550;-65
2021/09/30 03:34:00;;;;;;;11.20;7.60;;;8.30;99.90;;;;;;5012863;28;20177;-66
2021/09/30 03:36:26;;;;;;;9.43;8.10;;;8.30;99.90;;;;;;5027230;28;20608;-65
2021/09/30 03:38:52;;;;;;;9.50;8.43;;;8.30;99.90;;;;;;5031762;28;20167;-69
2021/09/30 03:41:17;;;;;;;8.63;7.50;;;8.30;99.90;;;;;;5011114;28;20318;-64
2021/09/30 03:43:43;;;;;;;8.73;7.90;;;8.30;99.90;;;;;;5011945;28;20259;-66
2021/09/30 03:46:10;;;;;;;12.30;8.00;;;8.30;99.90;;;;;;5029847;28;20210;-66
2021/09/30 03:48:35;;;;;;;10.90;9.20;;;8.30;99.90;;;;;;5031763;28;20206;-66
2021/09/30 04:01:17;;;;;;;9.33;8.37;;;8.20;99.90;;;;;;5014151;28;20195;-66
2021/09/30 04:03:43;;;;;;;14.67;8.90;;;8.20;99.90;;;;;;5011955;28;20192;-66
2021/09/30 04:06:09;;;;;;;12.10;7.77;;;8.20;99.90;;;;;;5027160;28;20207;-66
2021/09/30 04:08:35;;;;;;;12.93;8.67;;;8.20;99.90;;;;;;5031415;28;20203;-66
2021/09/30 04:11:01;;;;;;;8.90;7.77;;;8.20;99.90;;;;;;5016975;28;20184;-66
2021/09/30 04:13:27;;;;;;;16.00;9.03;;;8.20;99.90;;;;;;5011652;28;20160;-66
2021/09/30 04:15:52;;;;;;;12.67;8.60;;;8.20;99.90;;;;;;5023387;28;20200;-66
2021/09/30 04:18:18;;;;;;;11.63;8.60;;;8.20;99.90;;;;;;5031496;28;20190;-66
2021/09/30 04:20:44;;;;;;;10.30;8.73;;;8.20;99.90;;;;;;5001880;28;20266;-65
2021/09/30 04:23:10;;;;;;;9.93;8.90;;;8.20;99.90;;;;;;5012015;28;20203;-66
2021/09/30 04:25:36;;;;;;;9.77;8.83;;;8.20;99.90;;;;;;5008261;28;20203;-66
2021/09/30 04:28:02;;;;;;;12.00;9.20;;;8.20;99.90;;;;;;5031240;28;20203;-66
2021/09/30 04:30:28;;;;;;;14.13;8.13;;;8.20;99.90;;;;;;5011474;28;20190;-66
2021/09/30 04:32:53;;;;;;;10.83;8.70;;;8.20;99.90;;;;;;5013654;28;20703;-65
2021/09/30 04:35:19;;;;;;;9.50;8.57;;;8.20;99.90;;;;;;5020265;28;20196;-66
2021/09/30 04:37:45;;;;;;;10.20;8.57;;;8.10;99.90;;;;;;5011443;28;20180;-66
2021/09/30 04:40:12;;;;;;;10.53;8.07;;;8.10;99.90;;;;;;5020270;28;20188;-66
2021/09/30 04:42:37;;;;;;;10.13;8.30;;;8.10;99.90;;;;;;5029238;28;20262;-66
2021/09/30 04:45:04;;;;;;;11.43;8.87;;;8.10;99.90;;;;;;5011309;28;20318;-66
2021/09/30 04:47:30;;;;;;;8.87;8.17;;;8.10;99.90;;;;;;4993501;28;20239;-66
2021/09/30 04:49:55;;;;;;;9.20;8.27;;;8.10;99.90;;;;;;5010922;28;20223;-66
2021/09/30 04:52:21;;;;;;;11.80;8.13;;;8.10;99.90;;;;;;5030841;28;20179;-66
2021/09/30 04:54:48;;;;;;;9.03;8.23;;;8.10;99.90;;;;;;5012669;28;20199;-66
2021/09/30 04:57:13;;;;;;;9.00;8.03;;;8.10;99.90;;;;;;5011267;28;20180;-66
2021/09/30 04:59:39;;;;;;;10.17;7.73;;;8.10;99.90;;;;;;5027785;28;20591;-66
2021/09/30 05:02:05;;;;;;;9.40;7.63;;;8.10;99.90;;;;;;5030776;28;20171;-66
2021/09/30 05:04:30;;;;;;;8.37;7.23;;;8.20;99.90;;;;;;5015971;28;20199;-66
2021/09/30 05:06:56;;;;;;;8.47;7.70;;;8.10;99.90;;;;;;5011158;28;20196;-66
2021/09/30 05:09:25;;;;;;;14.53;8.57;;;8.20;99.90;;;;;;5026135;28;20182;-66
2021/09/30 05:11:52;;;;;;;13.50;8.33;;;8.10;99.90;;;;;;5034711;28;20179;-66
2021/09/30 05:14:18;;;;;;;12.87;8.70;;;8.10;99.90;;;;;;5022618;28;21487;-66
2021/09/30 05:16:43;;;;;;;10.80;8.23;;;8.10;99.90;;;;;;5018156;28;20186;-66
2021/09/30 05:19:09;;;;;;;10.20;8.17;;;8.10;99.90;;;;;;5034806;28;20176;-66
2021/09/30 05:21:35;;;;;;;8.47;7.77;;;8.10;99.90;;;;;;5031530;28;20183;-66
2021/09/30 05:24:01;;;;;;;12.00;9.03;;;8.10;99.90;;;;;;4996789;28;20176;-66
2021/09/30 05:26:29;;;;;;;9.70;8.70;;;8.10;99.90;;;;;;5014819;28;20168;-66
2021/09/30 05:29:00;;;;;;;11.50;9.23;;;8.10;99.90;;;;;;5016433;28;20553;-66
2021/09/30 05:31:28;;;;;;;13.07;8.70;;;8.10;99.90;;;;;;5034216;28;20254;-66
2021/09/30 05:33:54;;;;;;;10.27;9.00;;;8.10;99.90;;;;;;5014241;28;20250;-66
2021/09/30 05:36:20;;;;;;;8.73;7.70;;;8.10;99.90;;;;;;4996830;28;20231;-66
2021/09/30 05:38:46;;;;;;;9.93;8.30;;;8.00;99.90;;;;;;5014722;28;20218;-66
2021/09/30 05:41:11;;;;;;;14.13;8.90;;;8.10;99.90;;;;;;5033737;28;20625;-66
2021/09/30 05:43:39;;;;;;;14.10;8.17;;;8.10;99.90;;;;;;5017261;28;20184;-66
2021/09/30 05:46:06;;;;;;;18.97;7.93;;;8.10;99.90;;;;;;5026001;28;20219;-66
2021/09/30 05:48:32;;;;;;;14.73;8.20;;;8.10;99.90;;;;;;5034022;28;20207;-66
2021/09/30 05:50:58;;;;;;;13.67;7.77;;;8.10;99.90;;;;;;5022949;28;20554;-66
2021/09/30 05:53:24;;;;;;;10.70;8.07;;;8.10;99.90;;;;;;5014055;28;20218;-66
2021/09/30 05:55:50;;;;;;;15.33;7.97;;;8.20;99.90;;;;;;5002339;28;20217;-66
2021/09/30 05:58:17;;;;;;;8.73;7.87;;;8.20;99.90;;;;;;5033643;28;20175;-66
2021/09/30 06:11:42;;;;;;;11.47;8.20;;;8.40;99.90;;;;;;5021875;28;20707;-66
2021/09/30 06:14:15;;;;;;;12.33;8.87;;;8.50;99.90;;;;;;5032443;28;20636;-66
2021/09/30 06:16:49;;;;;;;12.70;8.60;;;8.60;99.90;;;;;;5002823;28;20612;-66
2021/09/30 06:19:20;;;;;;;12.03;8.43;;;8.60;99.90;;;;;;5013362;28;20176;-66
2021/09/30 06:21:47;;;;;;;17.67;9.80;;;8.60;99.90;;;;;;5006487;28;20598;-66
2021/09/30 06:24:14;;;;;;;12.77;8.13;;;8.70;99.90;;;;;;5026597;28;20180;-66
2021/09/30 06:26:40;;;;;;;10.23;8.03;;;8.80;99.90;;;;;;5013257;28;20683;-66
2021/09/30 06:29:05;;;;;;;13.53;10.33;;;8.90;99.90;;;;;;5017480;28;20188;-66
2021/09/30 06:31:31;;;;;;;9.40;7.97;;;9.00;99.90;;;;;;5032850;28;20171;-66
2021/09/30 06:33:57;;;;;;;8.57;7.77;;;9.00;99.90;;;;;;5029362;28;20176;-66
2021/09/30 06:36:22;;;;;;;11.27;9.70;;;9.10;99.90;;;;;;5012987;28;20196;-66
2021/09/30 06:38:48;;;;;;;11.77;8.10;;;9.20;99.90;;;;;;4996705;28;20367;-66
2021/09/30 06:41:13;;;;;;;12.83;7.67;;;9.30;99.90;;;;;;5032500;28;20183;-66
2021/09/30 06:43:39;;;;;;;11.10;7.80;;;9.50;99.90;;;;;;5032888;28;20537;-66
2021/09/30 06:46:04;;;;;;;13.27;7.40;;;9.70;99.90;;;;;;5012873;28;20216;-66
2021/09/30 06:48:30;;;;;;;8.70;7.20;;;10.10;99.90;;;;;;4995303;28;20499;-66
2021/09/30 06:50:56;;;;;;;16.73;6.87;;;10.60;99.90;;;;;;5030089;28;20726;-66
2021/09/30 06:53:21;;;;;;;11.17;6.17;;;11.00;99.90;;;;;;5014848;28;20186;-67
2021/09/30 06:55:48;;;;;;;11.60;7.03;;;11.50;99.90;;;;;;5016080;28;20211;-67
2021/09/30 06:58:14;;;;;;;7.97;6.33;;;11.80;99.90;;;;;;5006270;28;20187;-67
2021/09/30 07:00:41;;;;;;;11.80;6.50;;;12.10;99.90;;;;;;5014541;28;20271;-66
2021/09/30 07:03:08;;;;;;;8.20;6.07;;;12.30;99.90;;;;;;5022107;28;20195;-67
2021/09/30 07:05:34;;;;;;;7.00;6.23;;;12.50;99.90;;;;;;5012600;28;20192;-68
2021/09/30 07:08:01;;;;;;;9.03;6.07;;;12.70;99.90;;;;;;5020813;28;20319;-66
2021/09/30 07:10:27;;;;;;;9.57;6.37;;;12.90;99.90;;;;;;5014372;28;20187;-64
2021/09/30 07:12:52;;;;;;;6.80;5.97;;;13.00;99.90;;;;;;5025117;28;20188;-64
2021/09/30 07:15:18;;;;;;;10.90;6.93;;;13.20;99.90;;;;;;5012710;28;20196;-64
2021/09/30 07:17:44;;;;;;;9.63;7.10;;;13.40;99.90;;;;;;5013713;28;20184;-66
2021/09/30 07:20:10;;;;;;;7.37;6.10;;;13.40;99.90;;;;;;5015619;28;20195;-65
2021/09/30 07:22:36;;;;;;;9.70;6.00;;;13.60;99.90;;;;;;5015758;28;20187;-65
2021/09/30 07:25:03;;;;;;;8.83;5.80;;;13.60;99.90;;;;;;5031824;28;20568;-65
2021/09/30 07:27:28;;;;;;;8.47;5.83;;;13.90;99.90;;;;;;5028849;28;20478;-66
2021/09/30 07:29:54;;;;;;;9.23;6.60;;;14.00;99.90;;;;;;5011629;28;20176;-68
2021/09/30 07:32:19;;;;;;;7.50;5.87;;;14.30;99.90;;;;;;5012063;28;20173;-65
2021/09/30 07:34:45;;;;;;;8.30;6.30;;;14.50;99.90;;;;;;5032045;28;20223;-67
2021/09/30 07:37:11;;;;;;;9.73;6.20;;;14.70;99.90;;;;;;5031750;28;20647;-64
2021/09/30 07:39:37;;;;;;;11.60;6.30;;;14.80;99.90;;;;;;5020055;28;20276;-66
2021/09/30 07:42:03;;;;;;;10.97;5.97;;;14.80;99.90;;;;;;5012213;28;20187;-67
2021/09/30 07:44:28;;;;;;;12.17;6.23;;;14.90;99.90;;;;;;5028654;28;20214;-68
2021/09/30 07:46:55;;;;;;;7.07;5.67;;;15.00;99.90;;;;;;5030009;28;20650;-65
2021/09/30 07:49:20;;;;;;;10.60;5.60;;;15.20;99.90;;;;;;5013340;28;20168;-67
2021/09/30 07:51:46;;;;;;;9.50;6.10;;;15.30;99.90;;;;;;4994004;28;20226;-66
2021/09/30 07:54:14;;;;;;;7.63;6.20;;;15.30;99.90;;;;;;4994018;28;20180;-65
2021/09/30 07:56:39;;;;;;;7.70;5.93;;;15.20;99.90;;;;;;5012024;28;20176;-66
2021/09/30 07:59:05;;;;;;;8.07;6.47;;;15.30;99.90;;;;;;5011411;28;20176;-65
2021/09/30 08:01:31;;;;;;;10.20;6.07;;;15.10;99.90;;;;;;5010999;28;20555;-67
2021/09/30 08:03:59;;;;;;;9.77;6.60;;;15.20;99.90;;;;;;5011581;28;20650;-66
2021/09/30 08:06:25;;;;;;;12.53;6.07;;;15.10;99.90;;;;;;5012002;28;20207;-65
2021/09/30 08:08:51;;;;;;;17.67;6.70;;;15.40;99.90;;;;;;5011594;28;20274;-67
2021/09/30 08:11:17;;;;;;;13.03;6.90;;;15.40;99.90;;;;;;5011519;28;20179;-66
2021/09/30 08:13:42;;;;;;;7.83;6.43;;;15.60;99.90;;;;;;5011799;28;20187;-66
2021/09/30 08:16:08;;;;;;;17.83;7.10;;;16.00;99.90;;;;;;5011458;28;20258;-66
2021/09/30 08:18:34;;;;;;;7.13;6.20;;;15.80;99.90;;;;;;4994392;28;20180;-66
2021/09/30 08:21:00;;;;;;;8.03;6.73;;;15.90;99.90;;;;;;5010215;28;20283;-66
2021/09/30 08:23:26;;;;;;;9.47;6.10;;;15.60;99.90;;;;;;5011709;28;20255;-67
2021/09/30 08:25:52;;;;;;;10.80;5.73;;;15.40;99.90;;;;;;5011356;28;20346;-66
2021/09/30 08:28:20;;;;;;;8.60;6.20;;;15.40;99.90;;;;;;5011562;28;20717;-67
2021/09/30 08:30:46;;;;;;;12.93;6.37;;;15.50;99.90;;;;;;5011635;28;20179;-66
2021/09/30 08:33:12;;;;;;;7.60;5.93;;;15.50;99.90;;;;;;5011558;28;20169;-66
2021/09/30 08:35:39;;;;;;;7.57;5.80;;;15.30;99.90;;;;;;5011382;28;20200;-66
2021/09/30 08:38:05;;;;;;;8.90;6.10;;;15.20;99.90;;;;;;4993770;28;20187;-66
2021/09/30 08:40:32;;;;;;;9.10;5.97;;;15.40;99.90;;;;;;5011463;28;20208;-66
2021/09/30 08:42:58;;;;;;;7.17;6.37;;;15.10;99.90;;;;;;5011344;28;20548;-66
2021/09/30 08:45:24;;;;;;;10.27;6.60;;;15.20;99.90;;;;;;5015306;28;20220;-66
2021/09/30 08:48:01;;;;;;;9.23;6.30;;;15.50;99.90;;;;;;4997409;28;20596;-68
2021/09/30 08:50:32;;;;;;;13.73;6.97;;;15.90;99.90;;;;;;5014938;28;20175;-66
2021/09/30 08:52:59;;;;;;;8.57;5.67;;;16.10;99.90;;;;;;5015406;28;20717;-67
2021/09/30 08:55:25;;;;;;;9.93;5.87;;;16.10;99.90;;;;;;4997410;28;20196;-67
2021/09/30 08:57:51;;;;;;;11.53;5.93;;;16.50;99.90;;;;;;5015054;28;20172;-66
2021/09/30 09:00:19;;;;;;;11.93;5.90;;;16.80;99.90;;;;;;5014818;28;20515;-66
2021/09/30 09:02:50;;;;;;;10.03;5.57;;;17.20;99.90;;;;;;5014286;28;20168;-68
2021/09/30 09:05:17;;;;;;;6.03;5.33;;;17.60;99.90;;;;;;5014997;28;20284;-69
2021/09/30 09:07:55;;;;;;;7.23;5.50;;;18.00;99.90;;;;;;5014791;28;20227;-68
2021/09/30 09:10:23;;;;;;;7.37;5.47;;;17.90;99.90;;;;;;4997205;28;20604;-68
2021/09/30 09:13:09;;;;;;;9.27;5.30;;;18.00;99.90;;;;;;5014838;28;20516;-68
2021/09/30 09:15:48;;;;;;;11.77;6.13;;;18.10;99.90;;;;;;4997234;28;20195;-68
2021/09/30 09:18:23;;;;;;;10.33;5.53;;;18.30;99.90;;;;;;5014553;28;20204;-68
2021/09/30 09:20:59;;;;;;;14.07;5.90;;;18.70;99.90;;;;;;5013720;28;20207;-67
2021/09/30 09:23:25;;;;;;;10.73;6.00;;;19.10;99.90;;;;;;5014792;28;20183;-69
2021/09/30 09:26:05;;;;;;;8.00;5.43;;;19.60;99.90;;;;;;5014591;28;20287;-69
2021/09/30 09:28:30;;;;;;;7.73;5.67;;;19.60;99.90;;;;;;5014929;28;20207;-68
2021/09/30 09:30:56;;;;;;;9.03;5.70;;;19.50;99.90;;;;;;5014108;28;20694;-68
2021/09/30 09:33:27;;;;;;;9.73;6.00;;;19.30;99.90;;;;;;5014584;28;20176;-67
2021/09/30 09:36:13;;;;;;;10.57;6.73;;;19.40;99.90;;;;;;5014232;28;20196;-68
2021/09/30 09:38:45;;;;;;;8.33;6.10;;;19.20;99.90;;;;;;5014540;28;20569;-68
2021/09/30 09:41:35;;;;;;;11.20;6.37;;;18.60;99.90;;;;;;5014142;28;20187;-68
2021/09/30 09:44:04;;;;;;;10.07;5.57;;;18.70;99.90;;;;;;5014203;28;20179;-68
2021/09/30 09:46:32;;;;;;;7.03;5.73;;;19.00;99.90;;;;;;5092226;22;20222;-65
2021/09/30 09:49:29;;;;;;;12.70;5.80;;;19.40;99.90;;;;;;5066671;28;20202;-65
2021/09/30 09:51:55;;;;;;;14.27;5.40;;;20.00;99.90;;;;;;5062346;28;20198;-65
2021/09/30 09:54:26;;;;;;;5.80;5.20;;;20.40;99.90;;;;;;5073446;28;20235;-65
2021/09/30 09:56:52;;;;;;;8.80;4.90;;;20.50;99.90;;;;;;5057180;28;20175;-65
2021/09/30 09:59:31;;;;;;;9.60;6.30;;;20.20;99.90;;;;;;5050674;28;20653;-65
2021/09/30 10:02:00;;;;;;;12.67;6.30;;;20.00;99.90;;;;;;5033410;28;20171;-65
2021/09/30 10:04:27;;;;;;;7.43;5.83;;;19.50;99.90;;;;;;5038495;28;20175;-65
2021/09/30 10:06:52;;;;;;;8.10;5.40;;;19.00;99.90;;;;;;5053361;28;20171;-65
2021/09/30 10:09:18;;;;;;;10.70;5.80;;;18.90;99.90;;;;;;5049545;28;20187;-64
2021/09/30 10:11:44;;;;;;;9.87;5.60;;;19.30;99.90;;;;;;5033332;28;20176;-65
2021/09/30 10:14:10;;;;;;;6.10;5.43;;;19.40;99.90;;;;;;5034259;28;20178;-65
2021/09/30 10:16:37;;;;;;;8.27;5.27;;;19.60;99.90;;;;;;5033345;28;20718;-65
2021/09/30 10:19:09;;;;;;;9.97;6.37;;;19.80;99.90;;;;;;5032893;28;20203;-65
2021/09/30 10:21:37;;;;;;;6.50;5.57;;;19.90;99.90;;;;;;5033341;28;20173;-65
2021/09/30 10:24:06;;;;;;;9.67;5.67;;;19.90;99.90;;;;;;5032966;28;20230;-65
2021/09/30 10:26:40;;;;;;;9.90;5.07;;;19.80;99.90;;;;;;5048326;28;20191;-65
2021/09/30 10:29:06;;;;;;;6.70;5.73;;;19.50;99.90;;;;;;5032850;28;20586;-66
2021/09/30 10:31:37;;;;;;;8.17;5.77;;;19.50;99.90;;;;;;5051790;28;20214;-65
2021/09/30 10:34:08;;;;;;;8.07;5.57;;;19.20;99.90;;;;;;5052931;28;20163;-64
2021/09/30 10:36:46;;;;;;;5.77;5.20;;;19.10;99.90;;;;;;5042228;28;20252;-65
2021/09/30 10:39:23;;;;;;;7.10;5.70;;;18.70;99.90;;;;;;5072606;28;20166;-64
2021/09/30 10:41:55;;;;;;;5.93;5.53;;;18.40;99.90;;;;;;5060188;28;20212;-64
2021/09/30 10:44:24;;;;;;;7.47;5.53;;;18.70;99.90;;;;;;5052543;28;20175;-65
2021/09/30 10:46:53;;;;;;;10.50;6.03;;;19.00;99.90;;;;;;5052556;28;20171;-65
2021/09/30 10:49:46;;;;;;;7.37;6.23;;;19.00;99.90;;;;;;5051090;28;20189;-64
2021/09/30 10:52:11;;;;;;;7.93;5.63;;;19.20;99.90;;;;;;5052475;28;20167;-65
2021/09/30 10:54:40;;;;;;;7.83;4.83;;;19.30;99.90;;;;;;5036244;28;20172;-64
2021/09/30 10:57:34;;;;;;;6.00;5.30;;;19.30;99.90;;;;;;5032389;28;20230;-65
2021/09/30 11:00:00;;;;;;;7.73;5.57;;;19.70;99.90;;;;;;5050006;28;20178;-65
2021/09/30 11:02:26;;;;;;;6.80;5.10;;;19.70;99.90;;;;;;5052235;28;20174;-65
2021/09/30 11:05:21;;;;;;;6.63;5.10;;;19.50;99.90;;;;;;5035276;28;20299;-65
2021/09/30 11:08:25;;;;;;;6.63;5.10;;;19.50;99.90;;;;;;5031131;28;20245;-65
2021/09/30 11:11:06;;;;;;;5.33;4.83;;;19.90;99.90;;;;;;5031906;28;20249;-64
2021/09/30 11:13:42;;;;;;;6.60;4.87;;;19.80;99.90;;;;;;5032687;28;20183;-68
2021/09/30 11:16:16;;;;;;;8.17;5.30;;;19.60;99.90;;;;;;5032832;28;20194;-65
2021/09/30 11:18:59;;;;;;;5.87;5.10;;;19.50;99.90;;;;;;5052157;28;20166;-65
2021/09/30 11:21:31;;;;;;;5.80;5.03;;;19.00;99.90;;;;;;5048915;28;20190;-65
2021/09/30 11:24:15;;;;;;;6.63;5.47;;;18.90;99.90;;;;;;5031909;28;20636;-65
2021/09/30 11:26:53;;;;;;;6.80;5.00;;;18.80;99.90;;;;;;5036221;28;20698;-64
2021/09/30 11:31:49;;;;;;;6.50;5.60;;;18.70;99.90;;;;;;5047097;28;20194;-64
2021/09/30 11:34:20;;;;;;;8.27;5.50;;;18.60;99.90;;;;;;5031863;28;20180;-65
2021/09/30 11:36:46;;;;;;;5.77;5.13;;;18.50;99.90;;;;;;5035522;28;20182;-65
2021/09/30 11:39:12;;;;;;;7.47;5.30;;;18.60;99.90;;;;;;5051428;28;20254;-64
2021/09/30 11:41:41;;;;;;;5.43;4.87;;;18.50;99.90;;;;;;5050092;28;20206;-65
2021/09/30 11:44:12;;;;;;;6.23;5.20;;;18.50;99.90;;;;;;5051428;28;20175;-64
2021/09/30 11:46:38;;;;;;;6.13;5.53;;;18.70;99.90;;;;;;5041005;28;20214;-65
2021/09/30 11:49:12;;;;;;;7.20;5.27;;;18.80;99.90;;;;;;5031484;28;20203;-64
2021/09/30 11:51:47;;;;;;;6.03;5.43;;;19.10;99.90;;;;;;5041178;28;20189;-64
2021/09/30 11:54:21;;;;;;;7.23;5.97;;;19.10;99.90;;;;;;5051470;28;20232;-63
2021/09/30 11:56:55;;;;;;;9.23;5.67;;;19.20;99.90;;;;;;5041194;28;20191;-64
2021/09/30 11:59:23;;;;;;;13.20;6.00;;;19.10;99.90;;;;;;5031043;28;20546;-64
2021/09/30 12:02:05;;;;;;;7.07;5.60;;;19.30;99.90;;;;;;5040924;28;20537;-68
2021/09/30 12:04:36;;;;;;;8.50;5.20;;;19.30;99.90;;;;;;5051442;28;20179;-63
2021/09/30 12:07:02;;;;;;;8.20;5.30;;;19.30;99.90;;;;;;5040125;28;20242;-65
2021/09/30 12:09:32;;;;;;;6.67;5.20;;;19.20;99.90;;;;;;5031218;28;20202;-65
2021/09/30 12:12:04;;;;;;;10.13;5.50;;;19.30;99.90;;;;;;5040779;28;20201;-64
2021/09/30 12:14:42;;;;;;;7.80;5.90;;;19.30;99.90;;;;;;5051269;28;20640;-64
2021/09/30 12:17:12;;;;;;;6.70;5.80;;;19.20;99.90;;;;;;5040714;28;20245;-65
2021/09/30 12:19:44;;;;;;;6.70;5.33;;;19.10;99.90;;;;;;5033890;28;20186;-65
2021/09/30 12:22:33;;;;;;;9.33;4.80;;;19.00;99.90;;;;;;5045157;28;20221;-65
2021/09/30 12:25:08;;;;;;;5.87;5.27;;;19.00;99.90;;;;;;5055394;28;20281;-64
2021/09/30 12:27:37;;;;;;;9.10;6.50;;;19.10;99.90;;;;;;5042609;28;20719;-64
2021/09/30 12:30:11;;;;;;;7.10;5.10;;;18.70;99.90;;;;;;5034971;28;20163;-65
2021/09/30 12:32:40;;;;;;;5.70;5.07;;;18.80;99.90;;;;;;5047604;28;20625;-64
2021/09/30 12:35:17;;;;;;;6.03;5.40;;;18.80;99.90;;;;;;5036486;28;20199;-64
2021/09/30 12:37:48;;;;;;;8.20;5.30;;;19.10;99.90;;;;;;5047813;28;20178;-64
2021/09/30 12:40:18;;;;;;;6.63;5.13;;;18.80;99.90;;;;;;5053949;28;20667;-63
2021/09/30 12:43:02;;;;;;;8.20;5.70;;;19.00;99.90;;;;;;5054573;28;20191;-63
2021/09/30 12:45:29;;;;;;;7.17;5.63;;;19.00;99.90;;;;;;5054787;28;20556;-63
2021/09/30 12:48:08;;;;;;;7.03;5.23;;;18.90;99.90;;;;;;5047200;28;20648;-63
2021/09/30 12:50:41;;;;;;;5.40;4.90;;;18.70;99.90;;;;;;5034640;28;20179;-65
2021/09/30 12:53:07;;;;;;;7.03;5.00;;;18.70;99.90;;;;;;5049090;28;20174;-64
2021/09/30 12:55:33;;;;;;;8.63;5.40;;;18.80;99.90;;;;;;5053492;28;20554;-64
2021/09/30 12:57:59;;;;;;;7.70;5.83;;;18.70;99.90;;;;;;5033857;28;20255;-63
2021/09/30 13:00:32;;;;;;;10.87;5.30;;;18.70;99.90;;;;;;5034376;28;20183;-64
2021/09/30 13:03:14;;;;;;;6.23;5.47;;;18.40;99.90;;;;;;5034665;28;20576;-64
2021/09/30 13:05:51;;;;;;;6.73;5.17;;;18.40;99.90;;;;;;5035069;28;20195;-65
2021/09/30 13:08:37;;;;;;;7.87;5.57;;;18.30;99.90;;;;;;5034731;28;20214;-64
2021/09/30 13:11:24;;;;;;;9.67;5.67;;;18.50;99.90;;;;;;5034570;28;20183;-64
2021/09/30 13:14:17;;;;;;;7.23;5.30;;;18.50;99.90;;;;;;5034501;28;20172;-64
2021/09/30 13:16:51;;;;;;;11.67;5.40;;;18.40;99.90;;;;;;5035996;28;20235;-62
2021/09/30 13:19:18;;;;;;;9.20;6.47;;;18.40;99.90;;;;;;5034251;28;20214;-64
2021/09/30 13:21:58;;;;;;;6.33;5.70;;;18.20;99.90;;;;;;5042361;28;20210;-64
2021/09/30 13:24:23;;;;;;;8.33;5.27;;;18.10;99.90;;;;;;5054310;28;20189;-64
2021/09/30 13:26:49;;;;;;;7.93;6.13;;;18.00;99.90;;;;;;5052275;28;20182;-64
2021/09/30 13:29:15;;;;;;;9.10;6.00;;;17.80;99.90;;;;;;5053535;28;20596;-63
2021/09/30 13:31:40;;;;;;;6.47;5.90;;;17.50;99.90;;;;;;5052916;28;20179;-63
2021/09/30 13:34:06;;;;;;;8.80;5.60;;;17.10;99.90;;;;;;5053826;28;20222;-64
2021/09/30 13:36:32;;;;;;;7.17;5.90;;;16.90;99.90;;;;;;5041298;28;20245;-61
2021/09/30 13:38:58;;;;;;;9.30;5.33;;;16.80;99.90;;;;;;5033743;28;20183;-64
2021/09/30 13:41:24;;;;;;;7.03;5.40;;;16.90;99.90;;;;;;5044854;28;20547;-61
2021/09/30 13:43:50;;;;;;;7.00;5.10;;;16.80;99.90;;;;;;5086263;28;20265;-61
2021/09/30 13:46:16;;;;;;;6.30;5.47;;;16.80;99.90;;;;;;5035559;28;20634;-64
2021/09/30 13:48:42;;;;;;;9.57;5.00;;;16.80;99.90;;;;;;5053836;28;20300;-62
2021/09/30 13:51:07;;;;;;;7.17;5.67;;;16.80;99.90;;;;;;5036496;28;20179;-63
2021/09/30 13:53:33;;;;;;;8.10;5.43;;;16.80;99.90;;;;;;5033833;28;20168;-61
2021/09/30 13:55:59;;;;;;;6.53;5.27;;;16.60;99.90;;;;;;5048300;28;20199;-62
2021/09/30 13:58:24;;;;;;;6.57;5.50;;;16.70;99.90;;;;;;5053600;28;20235;-63
2021/09/30 14:00:50;;;;;;;6.47;5.77;;;16.80;99.90;;;;;;5049918;28;20663;-62
2021/09/30 14:03:15;;;;;;;6.00;5.30;;;16.70;99.90;;;;;;5053623;28;20187;-62
2021/09/30 14:05:41;;;;;;;10.90;6.20;;;16.80;99.90;;;;;;5041684;28;20207;-63
2021/09/30 14:08:08;;;;;;;7.20;5.13;;;16.80;99.90;;;;;;5031959;28;20629;-64
2021/09/30 14:10:34;;;;;;;7.93;5.47;;;16.80;99.90;;;;;;5043066;28;20280;-60
2021/09/30 14:13:00;;;;;;;10.97;5.53;;;16.70;99.90;;;;;;5047601;28;20241;-61
2021/09/30 14:15:25;;;;;;;7.47;5.23;;;16.80;99.90;;;;;;5031991;28;20199;-64
2021/09/30 14:17:51;;;;;;;6.43;5.50;;;16.70;99.90;;;;;;5036743;28;20217;-64
2021/09/30 14:20:17;;;;;;;9.43;5.30;;;16.70;99.90;;;;;;5052839;28;20182;-62
2021/09/30 14:22:42;;;;;;;6.50;5.83;;;16.90;99.90;;;;;;5051222;28;20179;-63
2021/09/30 14:25:09;;;;;;;9.07;5.97;;;16.80;99.90;;;;;;5033060;28;20196;-62
2021/09/30 14:27:36;;;;;;;7.10;5.40;;;16.90;99.90;;;;;;5033079;28;20664;-63
2021/09/30 14:30:03;;;;;;;6.00;5.53;;;16.90;99.90;;;;;;5052619;28;20591;-64
2021/09/30 14:32:29;;;;;;;5.80;5.20;;;16.90;99.90;;;;;;5052789;28;20680;-63
2021/09/30 14:34:54;;;;;;;8.27;5.60;;;17.00;99.90;;;;;;5033487;28;20298;-63
2021/09/30 14:37:20;;;;;;;5.90;5.33;;;17.10;99.90;;;;;;5032880;28;20183;-63
2021/09/30 14:39:46;;;;;;;5.63;4.93;;;17.30;99.90;;;;;;5049935;28;20210;-63
2021/09/30 14:42:12;;;;;;;5.90;5.40;;;17.40;99.90;;;;;;5038459;28;20616;-64
2021/09/30 14:44:38;;;;;;;7.27;5.10;;;17.40;99.90;;;;;;5032626;28;20179;-63
2021/09/30 14:47:04;;;;;;;5.97;4.87;;;17.60;99.90;;;;;;5043546;28;20183;-63
2021/09/30 14:49:31;;;;;;;7.27;5.20;;;17.70;99.90;;;;;;5052282;28;20171;-60
2021/09/30 14:51:57;;;;;;;6.33;5.43;;;17.60;99.90;;;;;;5042387;28;20184;-64
2021/09/30 14:54:22;;;;;;;5.80;5.30;;;17.60;99.90;;;;;;5032489;28;20250;-61
2021/09/30 14:56:48;;;;;;;7.00;5.30;;;17.60;99.90;;;;;;5040237;28;20269;-63
2021/09/30 14:59:14;;;;;;;9.30;6.43;;;17.60;99.90;;;;;;5052373;28;20205;-61
2021/09/30 15:01:40;;;;;;;8.90;5.73;;;17.60;99.90;;;;;;5045945;28;20548;-61
2021/09/30 15:04:08;;;;;;;7.43;6.73;;;17.50;99.90;;;;;;5032683;28;20183;-60
2021/09/30 15:06:35;;;;;;;7.10;5.93;;;17.40;99.90;;;;;;5037058;28;20345;-59
2021/09/30 15:09:02;;;;;;;5.60;5.00;;;17.30;99.90;;;;;;5050906;28;20254;-63
2021/09/30 15:11:28;;;;;;;6.30;5.70;;;17.20;99.90;;;;;;5032219;28;20266;-62
2021/09/30 15:13:53;;;;;;;7.67;5.70;;;17.00;99.90;;;;;;5032137;28;20661;-62
2021/09/30 15:16:20;;;;;;;6.20;5.10;;;16.90;99.90;;;;;;5050417;28;20198;-64
2021/09/30 15:21:21;;;;;;;5.70;5.20;;;16.70;99.90;;;;;;5034332;28;20728;-63
2021/09/30 15:23:56;;;;;;;7.77;5.80;;;16.70;99.90;;;;;;5032044;28;20207;-65
2021/09/30 15:26:23;;;;;;;7.67;5.83;;;16.60;99.90;;;;;;5049582;28;20552;-64
2021/09/30 15:28:50;;;;;;;8.97;6.03;;;16.50;99.90;;;;;;5051767;28;20215;-65
2021/09/30 15:31:18;;;;;;;10.43;6.40;;;16.40;99.90;;;;;;5034683;28;20203;-63
2021/09/30 15:33:45;;;;;;;7.03;5.53;;;16.40;99.90;;;;;;5031858;28;20186;-65
2021/09/30 15:36:11;;;;;;;13.50;6.60;;;16.30;99.90;;;;;;5046700;28;20203;-64
2021/09/30 15:38:40;;;;;;;8.63;6.40;;;16.30;99.90;;;;;;5040643;28;20664;-62
2021/09/30 15:41:07;;;;;;;6.60;5.90;;;16.30;99.90;;;;;;5031468;28;20261;-63
2021/09/30 15:43:33;;;;;;;7.53;5.77;;;16.30;99.90;;;;;;5032838;28;20195;-63
2021/09/30 15:46:01;;;;;;;6.13;5.50;;;16.30;99.90;;;;;;5075645;22;20299;-63
2021/09/30 15:48:27;;;;;;;8.93;5.70;;;16.30;99.90;;;;;;5071529;28;20202;-63
2021/09/30 15:50:53;;;;;;;11.63;8.00;;;16.40;99.90;;;;;;5070297;28;20550;-62
2021/09/30 15:53:18;;;;;;;5.80;5.33;;;16.50;99.90;;;;;;5051656;28;20163;-63
2021/09/30 15:55:44;;;;;;;6.10;5.50;;;16.40;99.90;;;;;;5051539;28;20195;-63
2021/09/30 15:58:10;;;;;;;7.33;5.67;;;16.40;99.90;;;;;;5070384;28;20182;-63